sensor_id;sensor_type;location;lat;lon;timestamp;temperature;humidity
4904;DHT22;2467;48.142;11.616;2023-07-13T00:00:27;19.80;99.90
4904;DHT22;2467;48.142;11.616;2023-07-13T00:00:59;19.80;99.90
4904;DHT22;2467;48.142;11.616;2023-07-13T00:01:32;19.80;99.90
4904;DHT22;2467;48.142;11.616;2023-07-13T00:02:04;19.70;99.90
4904;DHT22;2467;48.142;11.616;2023-07-13T00:02:36;19.70;99.90
4904;DHT22;2467;48.142;11.616;2023-07-13T00:03:08;19.70;99.90
4904;DHT22;2467;48.142;11.616;2023-07-13T00:03:45;19.60;99.90
4904;DHT22;2467;48.142;11.616;2023-07-13T00:04:18;19.60;99.90
4904;DHT22;2467;48.142;11.616;2023-07-13T00:04:50;19.60;99.90
4904;DHT22;2467;48.142;11.616;2023-07-13T00:05:24;19.50;99.90
4904;DHT22;2467;48.142;11.616;2023-07-13T00:06:00;19.50;99.90
4904;DHT22;2467;48.142;11.616;2023-07-13T00:06:32;19.50;99.90
4904;DHT22;2467;48.142;11.616;2023-07-13T00:07:04;19.50;99.90
4904;DHT22;2467;48.142;11.616;2023-07-13T00:07:37;19.50;99.90
4904;DHT22;2467;48.142;11.616;2023-07-13T00:08:09;19.40;99.90
4904;DHT22;2467;48.142;11.616;2023-07-13T00:08:43;19.40;99.90
4904;DHT22;2467;48.142;11.616;2023-07-13T00:09:16;19.40;99.90
4904;DHT22;2467;48.142;11.616;2023-07-13T00:09:49;19.40;99.90
4904;DHT22;2467;48.142;11.616;2023-07-13T00:10:21;19.40;99.90
4904;DHT22;2467;48.142;11.616;2023-07-13T00:10:53;19.40;99.90
4904;DHT22;2467;48.142;11.616;2023-07-13T00:11:26;19.40;99.90
4904;DHT22;2467;48.142;11.616;2023-07-13T00:11:58;19.40;99.90
4904;DHT22;2467;48.142;11.616;2023-07-13T00:12:34;19.40;99.90
4904;DHT22;2467;48.142;11.616;2023-07-13T00:13:06;19.30;99.90
4904;DHT22;2467;48.142;11.616;2023-07-13T00:13:38;19.30;99.90
4904;DHT22;2467;48.142;11.616;2023-07-13T00:14:11;19.30;99.90
4904;DHT22;2467;48.142;11.616;2023-07-13T00:14:43;19.30;99.90
4904;DHT22;2467;48.142;11.616;2023-07-13T00:15:20;19.30;99.90
4904;DHT22;2467;48.142;11.616;2023-07-13T00:15:54;19.30;99.90
4904;DHT22;2467;48.142;11.616;2023-07-13T00:16:27;19.30;99.90
4904;DHT22;2467;48.142;11.616;2023-07-13T00:16:59;19.40;99.90
4904;DHT22;2467;48.142;11.616;2023-07-13T00:17:32;19.40;99.90
4904;DHT22;2467;48.142;11.616;2023-07-13T00:18:04;19.30;99.90
4904;DHT22;2467;48.142;11.616;2023-07-13T00:18:37;19.30;99.90
4904;DHT22;2467;48.142;11.616;2023-07-13T00:19:09;19.30;99.90
4904;DHT22;2467;48.142;11.616;2023-07-13T00:19:41;19.30;99.90
4904;DHT22;2467;48.142;11.616;2023-07-13T00:20:13;19.30;99.90
4904;DHT22;2467;48.142;11.616;2023-07-13T00:20:46;19.40;99.90
4904;DHT22;2467;48.142;11.616;2023-07-13T00:21:17;19.30;99.90
4904;DHT22;2467;48.142;11.616;2023-07-13T00:21:49;19.30;99.90
4904;DHT22;2467;48.142;11.616;2023-07-13T00:22:21;19.30;99.90
4904;DHT22;2467;48.142;11.616;2023-07-13T00:22:57;19.30;99.90
4904;DHT22;2467;48.142;11.616;2023-07-13T00:23:30;19.30;99.90
4904;DHT22;2467;48.142;11.616;2023-07-13T00:24:02;19.30;99.90
4904;DHT22;2467;48.142;11.616;2023-07-13T00:24:35;19.30;99.90
4904;DHT22;2467;48.142;11.616;2023-07-13T00:25:09;19.30;99.90
4904;DHT22;2467;48.142;11.616;2023-07-13T00:25:42;19.40;99.90
4904;DHT22;2467;48.142;11.616;2023-07-13T00:26:14;19.40;99.90
4904;DHT22;2467;48.142;11.616;2023-07-13T00:26:47;19.40;99.90
4904;DHT22;2467;48.142;11.616;2023-07-13T00:27:19;19.40;99.90
4904;DHT22;2467;48.142;11.616;2023-07-13T00:27:51;19.40;99.90
4904;DHT22;2467;48.142;11.616;2023-07-13T00:28:23;19.40;99.90
4904;DHT22;2467;48.142;11.616;2023-07-13T00:28:56;19.40;99.90
4904;DHT22;2467;48.142;11.616;2023-07-13T00:29:27;19.40;99.90
4904;DHT22;2467;48.142;11.616;2023-07-13T00:30:01;19.30;99.90
4904;DHT22;2467;48.142;11.616;2023-07-13T00:30:35;19.30;99.90
4904;DHT22;2467;48.142;11.616;2023-07-13T00:31:09;19.40;99.90
4904;DHT22;2467;48.142;11.616;2023-07-13T00:31:41;19.40;99.90
4904;DHT22;2467;48.142;11.616;2023-07-13T00:32:13;19.40;99.90
4904;DHT22;2467;48.142;11.616;2023-07-13T00:32:45;19.40;99.90
4904;DHT22;2467;48.142;11.616;2023-07-13T00:33:17;19.40;99.90
4904;DHT22;2467;48.142;11.616;2023-07-13T00:33:49;19.40;99.90
4904;DHT22;2467;48.142;11.616;2023-07-13T00:34:21;19.50;99.90
4904;DHT22;2467;48.142;11.616;2023-07-13T00:34:53;19.50;99.90
4904;DHT22;2467;48.142;11.616;2023-07-13T00:35:26;19.50;99.90
4904;DHT22;2467;48.142;11.616;2023-07-13T00:35:58;19.60;99.90
4904;DHT22;2467;48.142;11.616;2023-07-13T00:36:30;19.60;99.90
4904;DHT22;2467;48.142;11.616;2023-07-13T00:37:04;19.50;99.90
4904;DHT22;2467;48.142;11.616;2023-07-13T00:37:38;19.60;99.90
4904;DHT22;2467;48.142;11.616;2023-07-13T00:38:09;19.50;99.90
4904;DHT22;2467;48.142;11.616;2023-07-13T00:38:42;19.60;99.90
4904;DHT22;2467;48.142;11.616;2023-07-13T00:39:15;19.60;99.90
4904;DHT22;2467;48.142;11.616;2023-07-13T00:39:47;19.60;99.90
4904;DHT22;2467;48.142;11.616;2023-07-13T00:40:19;19.60;99.90
4904;DHT22;2467;48.142;11.616;2023-07-13T00:40:50;19.70;99.90
4904;DHT22;2467;48.142;11.616;2023-07-13T00:41:23;19.60;99.90
4904;DHT22;2467;48.142;11.616;2023-07-13T00:41:55;19.60;99.90
4904;DHT22;2467;48.142;11.616;2023-07-13T00:42:27;19.60;99.90
4904;DHT22;2467;48.142;11.616;2023-07-13T00:43:00;19.60;99.90
4904;DHT22;2467;48.142;11.616;2023-07-13T00:43:33;19.50;99.90
4904;DHT22;2467;48.142;11.616;2023-07-13T00:44:05;19.50;99.90
4904;DHT22;2467;48.142;11.616;2023-07-13T00:44:37;19.50;99.90
4904;DHT22;2467;48.142;11.616;2023-07-13T00:46:24;19.40;99.90
4904;DHT22;2467;48.142;11.616;2023-07-13T00:46:56;19.40;99.90
4904;DHT22;2467;48.142;11.616;2023-07-13T00:47:30;19.30;99.90
4904;DHT22;2467;48.142;11.616;2023-07-13T00:48:02;19.30;99.90
4904;DHT22;2467;48.142;11.616;2023-07-13T00:48:35;19.30;99.90
4904;DHT22;2467;48.142;11.616;2023-07-13T00:49:12;19.30;99.90
4904;DHT22;2467;48.142;11.616;2023-07-13T00:49:45;19.30;99.90
4904;DHT22;2467;48.142;11.616;2023-07-13T00:50:19;19.30;99.90
4904;DHT22;2467;48.142;11.616;2023-07-13T00:50:53;19.30;99.90
4904;DHT22;2467;48.142;11.616;2023-07-13T00:51:32;19.30;99.90
4904;DHT22;2467;48.142;11.616;2023-07-13T00:52:08;19.30;99.90
4904;DHT22;2467;48.142;11.616;2023-07-13T00:52:45;19.30;99.90
4904;DHT22;2467;48.142;11.616;2023-07-13T00:53:18;19.30;99.90
4904;DHT22;2467;48.142;11.616;2023-07-13T00:53:53;19.30;99.90
4904;DHT22;2467;48.142;11.616;2023-07-13T00:54:29;19.30;99.90
4904;DHT22;2467;48.142;11.616;2023-07-13T00:55:03;19.30;99.90
4904;DHT22;2467;48.142;11.616;2023-07-13T00:55:35;19.30;99.90
4904;DHT22;2467;48.142;11.616;2023-07-13T00:56:07;19.40;99.90
4904;DHT22;2467;48.142;11.616;2023-07-13T00:56:41;19.30;99.90
4904;DHT22;2467;48.142;11.616;2023-07-13T00:57:19;19.40;99.90
4904;DHT22;2467;48.142;11.616;2023-07-13T00:57:52;19.40;99.90
4904;DHT22;2467;48.142;11.616;2023-07-13T00:58:25;19.40;99.90
4904;DHT22;2467;48.142;11.616;2023-07-13T00:58:57;19.50;99.90
4904;DHT22;2467;48.142;11.616;2023-07-13T00:59:31;19.50;99.90
4904;DHT22;2467;48.142;11.616;2023-07-13T01:00:06;19.50;99.90
4904;DHT22;2467;48.142;11.616;2023-07-13T01:00:40;19.50;99.90
4904;DHT22;2467;48.142;11.616;2023-07-13T01:01:13;19.50;99.90
4904;DHT22;2467;48.142;11.616;2023-07-13T01:01:46;19.50;99.90
4904;DHT22;2467;48.142;11.616;2023-07-13T01:02:20;19.50;99.90
4904;DHT22;2467;48.142;11.616;2023-07-13T01:02:53;19.50;99.90
4904;DHT22;2467;48.142;11.616;2023-07-13T01:03:25;19.50;99.90
4904;DHT22;2467;48.142;11.616;2023-07-13T01:03:57;19.50;99.90
4904;DHT22;2467;48.142;11.616;2023-07-13T01:04:30;19.50;99.90
4904;DHT22;2467;48.142;11.616;2023-07-13T01:05:04;19.40;99.90
4904;DHT22;2467;48.142;11.616;2023-07-13T01:05:40;19.50;99.90
4904;DHT22;2467;48.142;11.616;2023-07-13T01:06:12;19.40;99.90
4904;DHT22;2467;48.142;11.616;2023-07-13T01:06:46;19.40;99.90
4904;DHT22;2467;48.142;11.616;2023-07-13T01:07:18;19.40;99.90
4904;DHT22;2467;48.142;11.616;2023-07-13T01:07:51;19.40;99.90
4904;DHT22;2467;48.142;11.616;2023-07-13T01:08:24;19.50;99.90
4904;DHT22;2467;48.142;11.616;2023-07-13T01:08:57;19.40;99.90
4904;DHT22;2467;48.142;11.616;2023-07-13T01:09:29;19.40;99.90
4904;DHT22;2467;48.142;11.616;2023-07-13T01:10:02;19.40;99.90
4904;DHT22;2467;48.142;11.616;2023-07-13T01:10:34;19.50;99.90
4904;DHT22;2467;48.142;11.616;2023-07-13T01:11:10;19.50;99.90
4904;DHT22;2467;48.142;11.616;2023-07-13T01:11:43;19.50;99.90
4904;DHT22;2467;48.142;11.616;2023-07-13T01:12:16;19.40;99.90
4904;DHT22;2467;48.142;11.616;2023-07-13T01:12:48;19.50;99.90
4904;DHT22;2467;48.142;11.616;2023-07-13T01:13:20;19.50;99.90
4904;DHT22;2467;48.142;11.616;2023-07-13T01:13:53;19.50;99.90
4904;DHT22;2467;48.142;11.616;2023-07-13T01:14:25;19.50;99.90
4904;DHT22;2467;48.142;11.616;2023-07-13T01:14:57;19.50;99.90
4904;DHT22;2467;48.142;11.616;2023-07-13T01:15:38;19.60;99.90
4904;DHT22;2467;48.142;11.616;2023-07-13T01:16:15;19.60;99.90
4904;DHT22;2467;48.142;11.616;2023-07-13T01:16:51;19.60;99.90
4904;DHT22;2467;48.142;11.616;2023-07-13T01:17:24;19.60;99.90
4904;DHT22;2467;48.142;11.616;2023-07-13T01:17:57;19.60;99.90
4904;DHT22;2467;48.142;11.616;2023-07-13T01:18:29;19.70;99.90
4904;DHT22;2467;48.142;11.616;2023-07-13T01:19:05;19.70;99.90
4904;DHT22;2467;48.142;11.616;2023-07-13T01:19:40;19.70;99.90
4904;DHT22;2467;48.142;11.616;2023-07-13T01:20:14;19.70;99.90
4904;DHT22;2467;48.142;11.616;2023-07-13T01:20:50;19.70;99.90
4904;DHT22;2467;48.142;11.616;2023-07-13T01:21:22;19.70;99.90
4904;DHT22;2467;48.142;11.616;2023-07-13T01:21:54;19.70;99.90
4904;DHT22;2467;48.142;11.616;2023-07-13T01:22:27;19.70;99.90
4904;DHT22;2467;48.142;11.616;2023-07-13T01:22:59;19.70;99.90
4904;DHT22;2467;48.142;11.616;2023-07-13T01:23:32;19.70;99.90
4904;DHT22;2467;48.142;11.616;2023-07-13T01:24:04;19.80;99.90
4904;DHT22;2467;48.142;11.616;2023-07-13T01:24:39;19.70;99.90
4904;DHT22;2467;48.142;11.616;2023-07-13T01:25:11;19.80;99.90
4904;DHT22;2467;48.142;11.616;2023-07-13T01:25:42;19.70;99.90
4904;DHT22;2467;48.142;11.616;2023-07-13T01:26:15;19.70;99.90
4904;DHT22;2467;48.142;11.616;2023-07-13T01:26:47;19.70;99.90
4904;DHT22;2467;48.142;11.616;2023-07-13T01:27:23;19.70;99.90
4904;DHT22;2467;48.142;11.616;2023-07-13T01:27:56;19.80;99.90
4904;DHT22;2467;48.142;11.616;2023-07-13T01:28:29;19.70;99.90
4904;DHT22;2467;48.142;11.616;2023-07-13T01:29:01;19.70;99.90
4904;DHT22;2467;48.142;11.616;2023-07-13T01:29:36;19.70;99.90
4904;DHT22;2467;48.142;11.616;2023-07-13T01:30:13;19.60;99.90
4904;DHT22;2467;48.142;11.616;2023-07-13T01:30:46;19.60;99.90
4904;DHT22;2467;48.142;11.616;2023-07-13T01:31:18;19.60;99.90
4904;DHT22;2467;48.142;11.616;2023-07-13T01:31:50;19.60;99.90
4904;DHT22;2467;48.142;11.616;2023-07-13T01:32:24;19.60;99.90
4904;DHT22;2467;48.142;11.616;2023-07-13T01:32:57;19.60;99.90
4904;DHT22;2467;48.142;11.616;2023-07-13T01:33:28;19.60;99.90
4904;DHT22;2467;48.142;11.616;2023-07-13T01:34:00;19.60;99.90
4904;DHT22;2467;48.142;11.616;2023-07-13T01:34:33;19.60;99.90
4904;DHT22;2467;48.142;11.616;2023-07-13T01:35:06;19.60;99.90
4904;DHT22;2467;48.142;11.616;2023-07-13T01:35:38;19.60;99.90
4904;DHT22;2467;48.142;11.616;2023-07-13T01:36:11;19.70;99.90
4904;DHT22;2467;48.142;11.616;2023-07-13T01:36:45;19.60;99.90
4904;DHT22;2467;48.142;11.616;2023-07-13T01:37:17;19.60;99.90
4904;DHT22;2467;48.142;11.616;2023-07-13T01:37:48;19.60;99.90
4904;DHT22;2467;48.142;11.616;2023-07-13T01:38:23;19.60;99.90
4904;DHT22;2467;48.142;11.616;2023-07-13T01:38:55;19.60;99.90
4904;DHT22;2467;48.142;11.616;2023-07-13T01:39:27;19.60;99.90
4904;DHT22;2467;48.142;11.616;2023-07-13T01:39:59;19.60;99.90
4904;DHT22;2467;48.142;11.616;2023-07-13T01:40:31;19.60;99.90
4904;DHT22;2467;48.142;11.616;2023-07-13T01:41:04;19.70;99.90
4904;DHT22;2467;48.142;11.616;2023-07-13T01:41:36;19.60;99.90
4904;DHT22;2467;48.142;11.616;2023-07-13T01:42:08;19.60;99.90
4904;DHT22;2467;48.142;11.616;2023-07-13T01:42:41;19.60;99.90
4904;DHT22;2467;48.142;11.616;2023-07-13T01:43:14;19.60;99.90
4904;DHT22;2467;48.142;11.616;2023-07-13T01:43:46;19.60;99.90
4904;DHT22;2467;48.142;11.616;2023-07-13T01:44:18;19.70;99.90
4904;DHT22;2467;48.142;11.616;2023-07-13T01:44:51;19.60;99.90
4904;DHT22;2467;48.142;11.616;2023-07-13T01:45:23;19.60;99.90
4904;DHT22;2467;48.142;11.616;2023-07-13T01:45:55;19.60;99.90
4904;DHT22;2467;48.142;11.616;2023-07-13T01:46:47;19.60;99.90
4904;DHT22;2467;48.142;11.616;2023-07-13T01:47:19;19.60;99.90
4904;DHT22;2467;48.142;11.616;2023-07-13T01:47:51;19.60;99.90
4904;DHT22;2467;48.142;11.616;2023-07-13T01:48:24;19.60;99.90
4904;DHT22;2467;48.142;11.616;2023-07-13T01:48:55;19.60;99.90
4904;DHT22;2467;48.142;11.616;2023-07-13T01:49:27;19.60;99.90
4904;DHT22;2467;48.142;11.616;2023-07-13T01:50:00;19.60;99.90
4904;DHT22;2467;48.142;11.616;2023-07-13T01:50:32;19.60;99.90
4904;DHT22;2467;48.142;11.616;2023-07-13T01:51:04;19.50;99.90
4904;DHT22;2467;48.142;11.616;2023-07-13T01:51:37;19.50;99.90
4904;DHT22;2467;48.142;11.616;2023-07-13T01:52:10;19.50;99.90
4904;DHT22;2467;48.142;11.616;2023-07-13T01:52:42;19.40;99.90
4904;DHT22;2467;48.142;11.616;2023-07-13T01:53:14;19.40;99.90
4904;DHT22;2467;48.142;11.616;2023-07-13T01:53:46;19.40;99.90
4904;DHT22;2467;48.142;11.616;2023-07-13T01:54:18;19.40;99.90
4904;DHT22;2467;48.142;11.616;2023-07-13T01:54:51;19.50;99.90
4904;DHT22;2467;48.142;11.616;2023-07-13T01:55:23;19.50;99.90
4904;DHT22;2467;48.142;11.616;2023-07-13T01:55:54;19.50;99.90
4904;DHT22;2467;48.142;11.616;2023-07-13T01:56:27;19.50;99.90
4904;DHT22;2467;48.142;11.616;2023-07-13T01:56:59;19.50;99.90
4904;DHT22;2467;48.142;11.616;2023-07-13T01:57:31;19.50;99.90
4904;DHT22;2467;48.142;11.616;2023-07-13T01:58:05;19.50;99.90
4904;DHT22;2467;48.142;11.616;2023-07-13T01:58:37;19.50;99.90
4904;DHT22;2467;48.142;11.616;2023-07-13T01:59:09;19.50;99.90
4904;DHT22;2467;48.142;11.616;2023-07-13T01:59:42;19.40;99.90
4904;DHT22;2467;48.142;11.616;2023-07-13T02:00:15;19.40;99.90
4904;DHT22;2467;48.142;11.616;2023-07-13T02:00:48;19.40;99.90
4904;DHT22;2467;48.142;11.616;2023-07-13T02:01:20;19.40;99.90
4904;DHT22;2467;48.142;11.616;2023-07-13T02:01:53;19.40;99.90
4904;DHT22;2467;48.142;11.616;2023-07-13T02:02:25;19.30;99.90
4904;DHT22;2467;48.142;11.616;2023-07-13T02:02:57;19.40;99.90
4904;DHT22;2467;48.142;11.616;2023-07-13T02:03:29;19.40;99.90
4904;DHT22;2467;48.142;11.616;2023-07-13T02:04:13;19.40;99.90
4904;DHT22;2467;48.142;11.616;2023-07-13T02:04:46;19.40;99.90
4904;DHT22;2467;48.142;11.616;2023-07-13T02:05:18;19.40;99.90
4904;DHT22;2467;48.142;11.616;2023-07-13T02:05:50;19.40;99.90
4904;DHT22;2467;48.142;11.616;2023-07-13T02:06:23;19.40;99.90
4904;DHT22;2467;48.142;11.616;2023-07-13T02:06:56;19.40;99.90
4904;DHT22;2467;48.142;11.616;2023-07-13T02:07:28;19.40;99.90
4904;DHT22;2467;48.142;11.616;2023-07-13T02:08:00;19.40;99.90
4904;DHT22;2467;48.142;11.616;2023-07-13T02:08:33;19.40;99.90
4904;DHT22;2467;48.142;11.616;2023-07-13T02:09:05;19.40;99.90
4904;DHT22;2467;48.142;11.616;2023-07-13T02:09:37;19.40;99.90
4904;DHT22;2467;48.142;11.616;2023-07-13T02:10:10;19.40;99.90
4904;DHT22;2467;48.142;11.616;2023-07-13T02:10:42;19.40;99.90
4904;DHT22;2467;48.142;11.616;2023-07-13T02:11:14;19.50;99.90
4904;DHT22;2467;48.142;11.616;2023-07-13T02:11:46;19.40;99.90
4904;DHT22;2467;48.142;11.616;2023-07-13T02:12:20;19.50;99.90
4904;DHT22;2467;48.142;11.616;2023-07-13T02:12:51;19.50;99.90
4904;DHT22;2467;48.142;11.616;2023-07-13T02:13:24;19.50;99.90
4904;DHT22;2467;48.142;11.616;2023-07-13T02:13:56;19.50;99.90
4904;DHT22;2467;48.142;11.616;2023-07-13T02:14:28;19.50;99.90
4904;DHT22;2467;48.142;11.616;2023-07-13T02:15:00;19.50;99.90
4904;DHT22;2467;48.142;11.616;2023-07-13T02:15:32;19.50;99.90
4904;DHT22;2467;48.142;11.616;2023-07-13T02:16:05;19.50;99.90
4904;DHT22;2467;48.142;11.616;2023-07-13T02:16:38;19.50;99.90
4904;DHT22;2467;48.142;11.616;2023-07-13T02:17:10;19.50;99.90
4904;DHT22;2467;48.142;11.616;2023-07-13T02:17:42;19.40;99.90
4904;DHT22;2467;48.142;11.616;2023-07-13T02:18:15;19.50;99.90
4904;DHT22;2467;48.142;11.616;2023-07-13T02:18:48;19.50;99.90
4904;DHT22;2467;48.142;11.616;2023-07-13T02:19:23;19.50;99.90
4904;DHT22;2467;48.142;11.616;2023-07-13T02:19:55;19.50;99.90
4904;DHT22;2467;48.142;11.616;2023-07-13T02:20:28;19.50;99.90
4904;DHT22;2467;48.142;11.616;2023-07-13T02:21:00;19.50;99.90
4904;DHT22;2467;48.142;11.616;2023-07-13T02:21:32;19.50;99.90
4904;DHT22;2467;48.142;11.616;2023-07-13T02:22:06;19.50;99.90
4904;DHT22;2467;48.142;11.616;2023-07-13T02:22:38;19.60;99.90
4904;DHT22;2467;48.142;11.616;2023-07-13T02:23:10;19.60;99.90
4904;DHT22;2467;48.142;11.616;2023-07-13T02:23:43;19.60;99.90
4904;DHT22;2467;48.142;11.616;2023-07-13T02:24:15;19.60;99.90
4904;DHT22;2467;48.142;11.616;2023-07-13T02:24:49;19.60;99.90
4904;DHT22;2467;48.142;11.616;2023-07-13T02:25:21;19.60;99.90
4904;DHT22;2467;48.142;11.616;2023-07-13T02:25:55;19.60;99.90
4904;DHT22;2467;48.142;11.616;2023-07-13T02:26:27;19.60;99.90
4904;DHT22;2467;48.142;11.616;2023-07-13T02:26:59;19.60;99.90
4904;DHT22;2467;48.142;11.616;2023-07-13T02:27:31;19.60;99.90
4904;DHT22;2467;48.142;11.616;2023-07-13T02:28:04;19.70;99.90
4904;DHT22;2467;48.142;11.616;2023-07-13T02:28:35;19.70;99.90
4904;DHT22;2467;48.142;11.616;2023-07-13T02:29:07;19.70;99.90
4904;DHT22;2467;48.142;11.616;2023-07-13T02:29:39;19.70;99.90
4904;DHT22;2467;48.142;11.616;2023-07-13T02:30:12;19.80;99.90
4904;DHT22;2467;48.142;11.616;2023-07-13T02:30:44;19.80;99.90
4904;DHT22;2467;48.142;11.616;2023-07-13T02:31:16;19.80;99.90
4904;DHT22;2467;48.142;11.616;2023-07-13T02:31:49;19.70;99.90
4904;DHT22;2467;48.142;11.616;2023-07-13T02:32:21;19.80;99.90
4904;DHT22;2467;48.142;11.616;2023-07-13T02:32:53;19.70;99.90
4904;DHT22;2467;48.142;11.616;2023-07-13T02:33:25;19.70;99.90
4904;DHT22;2467;48.142;11.616;2023-07-13T02:33:58;19.70;99.90
4904;DHT22;2467;48.142;11.616;2023-07-13T02:34:30;19.70;99.90
4904;DHT22;2467;48.142;11.616;2023-07-13T02:35:04;19.70;99.90
4904;DHT22;2467;48.142;11.616;2023-07-13T02:35:37;19.70;99.90
4904;DHT22;2467;48.142;11.616;2023-07-13T02:36:10;19.70;99.90
4904;DHT22;2467;48.142;11.616;2023-07-13T02:36:43;19.70;99.90
4904;DHT22;2467;48.142;11.616;2023-07-13T02:37:16;19.60;99.90
4904;DHT22;2467;48.142;11.616;2023-07-13T02:37:49;19.60;99.90
4904;DHT22;2467;48.142;11.616;2023-07-13T02:38:21;19.60;99.90
4904;DHT22;2467;48.142;11.616;2023-07-13T02:38:53;19.60;99.90
4904;DHT22;2467;48.142;11.616;2023-07-13T02:39:25;19.60;99.90
4904;DHT22;2467;48.142;11.616;2023-07-13T02:39:57;19.60;99.90
4904;DHT22;2467;48.142;11.616;2023-07-13T02:40:29;19.60;99.90
4904;DHT22;2467;48.142;11.616;2023-07-13T02:41:05;19.60;99.90
4904;DHT22;2467;48.142;11.616;2023-07-13T02:41:38;19.50;99.90
4904;DHT22;2467;48.142;11.616;2023-07-13T02:42:10;19.50;99.90
4904;DHT22;2467;48.142;11.616;2023-07-13T02:42:42;19.50;99.90
4904;DHT22;2467;48.142;11.616;2023-07-13T02:43:14;19.40;99.90
4904;DHT22;2467;48.142;11.616;2023-07-13T02:43:47;19.40;99.90
4904;DHT22;2467;48.142;11.616;2023-07-13T02:44:19;19.40;99.90
4904;DHT22;2467;48.142;11.616;2023-07-13T02:44:51;19.30;99.90
4904;DHT22;2467;48.142;11.616;2023-07-13T02:45:23;19.30;99.90
4904;DHT22;2467;48.142;11.616;2023-07-13T02:45:55;19.30;99.90
4904;DHT22;2467;48.142;11.616;2023-07-13T02:46:27;19.30;99.90
4904;DHT22;2467;48.142;11.616;2023-07-13T02:46:59;19.30;99.90
4904;DHT22;2467;48.142;11.616;2023-07-13T02:47:32;19.20;99.90
4904;DHT22;2467;48.142;11.616;2023-07-13T02:48:05;19.20;99.90
4904;DHT22;2467;48.142;11.616;2023-07-13T02:48:38;19.20;99.90
4904;DHT22;2467;48.142;11.616;2023-07-13T02:49:10;19.20;99.90
4904;DHT22;2467;48.142;11.616;2023-07-13T02:49:42;19.20;99.90
4904;DHT22;2467;48.142;11.616;2023-07-13T02:50:15;19.20;99.90
4904;DHT22;2467;48.142;11.616;2023-07-13T02:50:47;19.10;99.90
4904;DHT22;2467;48.142;11.616;2023-07-13T02:51:19;19.10;99.90
4904;DHT22;2467;48.142;11.616;2023-07-13T02:51:51;19.10;99.90
4904;DHT22;2467;48.142;11.616;2023-07-13T02:52:26;19.20;99.90
4904;DHT22;2467;48.142;11.616;2023-07-13T02:52:58;19.20;99.90
4904;DHT22;2467;48.142;11.616;2023-07-13T02:53:30;19.20;99.90
4904;DHT22;2467;48.142;11.616;2023-07-13T02:54:02;19.20;99.90
4904;DHT22;2467;48.142;11.616;2023-07-13T02:54:35;19.20;99.90
4904;DHT22;2467;48.142;11.616;2023-07-13T02:55:08;19.20;99.90
4904;DHT22;2467;48.142;11.616;2023-07-13T02:55:40;19.10;99.90
4904;DHT22;2467;48.142;11.616;2023-07-13T02:56:21;19.10;99.90
4904;DHT22;2467;48.142;11.616;2023-07-13T02:56:54;19.10;99.90
4904;DHT22;2467;48.142;11.616;2023-07-13T02:57:26;19.10;99.90
4904;DHT22;2467;48.142;11.616;2023-07-13T02:57:58;19.00;99.90
4904;DHT22;2467;48.142;11.616;2023-07-13T02:58:31;19.00;99.90
4904;DHT22;2467;48.142;11.616;2023-07-13T02:59:03;19.00;99.90
4904;DHT22;2467;48.142;11.616;2023-07-13T02:59:35;19.00;99.90
4904;DHT22;2467;48.142;11.616;2023-07-13T03:00:09;19.00;99.90
4904;DHT22;2467;48.142;11.616;2023-07-13T03:00:41;19.00;99.90
4904;DHT22;2467;48.142;11.616;2023-07-13T03:01:13;18.90;99.90
4904;DHT22;2467;48.142;11.616;2023-07-13T03:01:50;18.90;99.90
4904;DHT22;2467;48.142;11.616;2023-07-13T03:02:23;18.90;99.90
4904;DHT22;2467;48.142;11.616;2023-07-13T03:02:56;18.90;99.90
4904;DHT22;2467;48.142;11.616;2023-07-13T03:03:29;18.90;99.90
4904;DHT22;2467;48.142;11.616;2023-07-13T03:04:02;18.80;99.90
4904;DHT22;2467;48.142;11.616;2023-07-13T03:04:35;18.70;99.90
4904;DHT22;2467;48.142;11.616;2023-07-13T03:05:07;18.70;99.90
4904;DHT22;2467;48.142;11.616;2023-07-13T03:05:43;18.60;99.90
4904;DHT22;2467;48.142;11.616;2023-07-13T03:06:16;18.60;99.90
4904;DHT22;2467;48.142;11.616;2023-07-13T03:06:48;18.50;99.90
4904;DHT22;2467;48.142;11.616;2023-07-13T03:07:20;18.40;99.90
4904;DHT22;2467;48.142;11.616;2023-07-13T03:07:54;18.40;99.90
4904;DHT22;2467;48.142;11.616;2023-07-13T03:08:26;18.30;99.90
4904;DHT22;2467;48.142;11.616;2023-07-13T03:08:58;18.30;99.90
4904;DHT22;2467;48.142;11.616;2023-07-13T03:09:32;18.20;99.90
4904;DHT22;2467;48.142;11.616;2023-07-13T03:10:06;18.10;99.90
4904;DHT22;2467;48.142;11.616;2023-07-13T03:10:38;18.10;99.90
4904;DHT22;2467;48.142;11.616;2023-07-13T03:11:13;18.10;99.90
4904;DHT22;2467;48.142;11.616;2023-07-13T03:11:46;18.10;99.90
4904;DHT22;2467;48.142;11.616;2023-07-13T03:12:18;18.10;99.90
4904;DHT22;2467;48.142;11.616;2023-07-13T03:12:50;18.10;99.90
4904;DHT22;2467;48.142;11.616;2023-07-13T03:13:23;18.00;99.90
4904;DHT22;2467;48.142;11.616;2023-07-13T03:13:55;18.00;99.90
4904;DHT22;2467;48.142;11.616;2023-07-13T03:14:27;18.00;99.90
4904;DHT22;2467;48.142;11.616;2023-07-13T03:14:59;18.00;99.90
4904;DHT22;2467;48.142;11.616;2023-07-13T03:15:32;18.00;99.90
4904;DHT22;2467;48.142;11.616;2023-07-13T03:16:04;18.00;99.90
4904;DHT22;2467;48.142;11.616;2023-07-13T03:16:36;18.00;99.90
4904;DHT22;2467;48.142;11.616;2023-07-13T03:17:08;18.00;99.90
4904;DHT22;2467;48.142;11.616;2023-07-13T03:17:41;18.00;99.90
4904;DHT22;2467;48.142;11.616;2023-07-13T03:18:13;18.00;99.90
4904;DHT22;2467;48.142;11.616;2023-07-13T03:18:45;18.10;99.90
4904;DHT22;2467;48.142;11.616;2023-07-13T03:19:18;18.10;99.90
4904;DHT22;2467;48.142;11.616;2023-07-13T03:19:50;18.10;99.90
4904;DHT22;2467;48.142;11.616;2023-07-13T03:20:23;18.10;99.90
4904;DHT22;2467;48.142;11.616;2023-07-13T03:20:55;18.10;99.90
4904;DHT22;2467;48.142;11.616;2023-07-13T03:21:27;18.10;99.90
4904;DHT22;2467;48.142;11.616;2023-07-13T03:22:00;18.10;99.90
4904;DHT22;2467;48.142;11.616;2023-07-13T03:22:32;18.00;99.90
4904;DHT22;2467;48.142;11.616;2023-07-13T03:23:05;18.10;99.90
4904;DHT22;2467;48.142;11.616;2023-07-13T03:23:37;18.10;99.90
4904;DHT22;2467;48.142;11.616;2023-07-13T03:24:10;18.00;99.90
4904;DHT22;2467;48.142;11.616;2023-07-13T03:24:42;18.00;99.90
4904;DHT22;2467;48.142;11.616;2023-07-13T03:25:14;18.00;99.90
4904;DHT22;2467;48.142;11.616;2023-07-13T03:25:46;18.10;99.90
4904;DHT22;2467;48.142;11.616;2023-07-13T03:26:20;18.10;99.90
4904;DHT22;2467;48.142;11.616;2023-07-13T03:26:52;18.10;99.90
4904;DHT22;2467;48.142;11.616;2023-07-13T03:27:24;18.00;99.90
4904;DHT22;2467;48.142;11.616;2023-07-13T03:27:57;18.10;99.90
4904;DHT22;2467;48.142;11.616;2023-07-13T03:28:28;18.00;99.90
4904;DHT22;2467;48.142;11.616;2023-07-13T03:29:00;18.10;99.90
4904;DHT22;2467;48.142;11.616;2023-07-13T03:29:32;18.10;99.90
4904;DHT22;2467;48.142;11.616;2023-07-13T03:30:06;18.00;99.90
4904;DHT22;2467;48.142;11.616;2023-07-13T03:30:39;18.00;99.90
4904;DHT22;2467;48.142;11.616;2023-07-13T03:31:13;18.00;99.90
4904;DHT22;2467;48.142;11.616;2023-07-13T03:31:45;17.90;99.90
4904;DHT22;2467;48.142;11.616;2023-07-13T03:32:18;17.90;99.90